Time;durP1;ratioP1;P1;durP2;ratioP2;P2;SDS_P1;SDS_P2;PMS_P1;PMS_P2;Temp;Humidity;BMP_temperature;BMP_pressure;BME280_temperature;BME280_humidity;BME280_pressure;Samples;Min_cycle;Max_cycle;Signal;HPM_P1;HPM_P2
2022/01/31 05:33:27;;;;;;;;;;;;;;;4.11;100.00;97960.91;4972032;25;19964;-66
2022/01/31 05:35:55;;;;;;;;;;;;;;;4.10;100.00;97956.53;4667643;30;19965;-66
2022/01/31 05:38:23;;;;;;;;;;;;;;;4.14;100.00;97953.84;4667510;30;20357;-66
2022/01/31 05:40:50;;;;;;;;;;;;;;;4.10;100.00;97956.53;4667543;30;20261;-66
2022/01/31 05:43:19;;;;;;;;;;;;;;;4.13;100.00;97960.56;4668563;30;19961;-66
2022/01/31 05:45:46;;;;;;;;;;;;;;;4.15;100.00;97950.72;4670523;30;19966;-66
2022/01/31 05:48:18;;;;;;;;;;;;;;;4.21;100.00;97953.97;4670762;30;19954;-67
2022/01/31 05:50:45;;;;;;;;;;;;;;;4.24;100.00;97937.47;4670947;30;19965;-67
2022/01/31 05:53:13;;;;;;;;;;;;;;;4.32;100.00;97941.97;4670153;30;19964;-66
2022/01/31 05:55:40;;;;;;;;;;;;;;;4.34;100.00;97934.09;4670016;30;19989;-66
2022/01/31 05:58:09;;;;;;;;;;;;;;;4.31;100.00;97932.06;4670579;30;19962;-66
2022/01/31 06:00:37;;;;;;;;;;;;;;;4.28;100.00;97929.25;4670459;30;19956;-66
2022/01/31 06:03:05;;;;;;;;;;;;;;;4.23;100.00;97932.31;4670659;30;19951;-66
2022/01/31 06:05:32;;;;;;;;;;;;;;;4.19;100.00;97940.53;4670217;30;19973;-66
2022/01/31 06:07:59;;;;;;;;;;;;;;;4.19;100.00;97942.47;4670407;30;19954;-66
2022/01/31 06:10:27;;;;;;;;;;;;;;;4.14;100.00;97949.13;4645984;30;20363;-66
2022/01/31 06:12:56;;;;;;;;;;;;;;;4.11;100.00;97952.59;4658973;30;19957;-67
2022/01/31 06:15:23;;;;;;;;;;;;;;;4.09;100.00;97954.94;4668543;30;20366;-66
2022/01/31 06:17:50;;;;;;;;;;;;;;;4.06;100.00;97954.88;4661680;30;19976;-66
2022/01/31 06:20:18;;;;;;;;;;;;;;;3.99;100.00;97956.31;4668570;30;19959;-66
2022/01/31 06:22:50;;;;;;;;;;;;;;;3.97;100.00;97963.38;4669915;30;19964;-66
2022/01/31 06:25:18;;;;;;;;;;;;;;;3.94;100.00;97958.56;4665906;30;19958;-66
2022/01/31 06:27:46;;;;;;;;;;;;;;;3.93;100.00;97957.78;4653041;30;19989;-66
2022/01/31 06:30:17;;;;;;;;;;;;;;;3.96;100.00;97940.44;4653574;30;19955;-66
2022/01/31 06:32:46;;;;;;;;;;;;;;;3.99;100.00;97945.25;4663378;30;20032;-67
2022/01/31 06:35:14;;;;;;;;;;;;;;;4.04;100.00;97935.84;4669188;30;19973;-67
2022/01/31 06:37:41;;;;;;;;;;;;;;;4.12;100.00;97926.53;4672569;30;20993;-67
2022/01/31 06:40:08;;;;;;;;;;;;;;;4.12;100.00;97923.78;4671808;30;20349;-66
2022/01/31 06:42:36;;;;;;;;;;;;;;;4.19;100.00;97914.81;4656907;30;19972;-67
2022/01/31 06:45:04;;;;;;;;;;;;;;;4.20;100.00;97902.59;4660078;30;19953;-67
2022/01/31 06:47:31;;;;;;;;;;;;;;;4.22;100.00;97903.00;4662417;30;20473;-66
2022/01/31 06:49:59;;;;;;;;;;;;;;;4.19;100.00;97889.91;4659096;30;20462;-66
2022/01/31 06:52:31;;;;;;;;;;;;;;;4.25;100.00;97888.44;4660229;30;20255;-66
2022/01/31 06:55:02;;;;;;;;;;;;;;;4.27;100.00;97883.34;4658843;30;19971;-67
2022/01/31 06:57:33;;;;;;;;;;;;;;;4.26;100.00;97885.31;4660414;30;19955;-66
2022/01/31 07:00:03;;;;;;;;;;;;;;;4.34;100.00;97867.69;4661003;30;19955;-67
2022/01/31 07:02:30;;;;;;;;;;;;;;;4.43;100.00;97865.47;4662539;30;20936;-67
2022/01/31 07:05:00;;;;;;;;;;;;;;;4.55;100.00;97870.81;4662213;30;19962;-66
2022/01/31 07:07:28;;;;;;;;;;;;;;;4.65;100.00;97863.88;4661493;30;19952;-67
2022/01/31 07:09:55;;;;;;;;;;;;;;;4.79;100.00;97866.91;4662118;30;19966;-66
2022/01/31 07:12:30;;;;;;;;;;;;;;;4.96;100.00;97863.63;4661654;30;19962;-66
2022/01/31 07:14:57;;;;;;;;;;;;;;;5.10;100.00;97849.16;4661546;30;19984;-66
2022/01/31 07:17:24;;;;;;;;;;;;;;;5.20;100.00;97854.06;4661262;30;19961;-67
2022/01/31 07:19:53;;;;;;;;;;;;;;;5.19;100.00;97853.28;4662101;30;20344;-67
2022/01/31 07:22:25;;;;;;;;;;;;;;;5.50;100.00;97840.25;4661142;30;19959;-67
2022/01/31 07:25:05;;;;;;;;;;;;;;;5.67;100.00;97845.22;4661526;30;19956;-67
2022/01/31 07:27:33;;;;;;;;;;;;;;;5.83;100.00;97849.41;4661490;30;19993;-67
2022/01/31 07:30:01;;;;;;;;;;;;;;;5.85;100.00;97843.50;4661135;30;20368;-67
2022/01/31 07:32:29;;;;;;;;;;;;;;;5.92;100.00;97847.16;4666436;30;19980;-67
2022/01/31 07:34:56;;;;;;;;;;;;;;;5.88;100.00;97851.06;4669515;30;19983;-67
2022/01/31 07:37:24;;;;;;;;;;;;;;;5.87;100.00;97860.56;4678949;30;19966;-67
2022/01/31 07:39:52;;;;;;;;;;;;;;;5.88;100.00;97853.84;4665883;30;20461;-67
2022/01/31 07:42:19;;;;;;;;;;;;;;;5.91;100.00;97848.34;4634684;30;22013;-67
2022/01/31 07:44:47;;;;;;;;;;;;;;;6.12;100.00;97839.44;4665961;30;19967;-67
2022/01/31 07:47:14;;;;;;;;;;;;;;;7.19;100.00;97828.09;4672645;30;20373;-67
2022/01/31 07:49:41;;;;;;;;;;;;;;;7.77;100.00;97816.91;4668184;30;20343;-69
2022/01/31 07:52:09;;;;;;;;;;;;;;;8.00;100.00;97809.03;4665390;30;19962;-69
2022/01/31 07:54:38;;;;;;;;;;;;;;;7.91;100.00;97808.63;4666937;30;20014;-69
2022/01/31 07:57:05;;;;;;;;;;;;;;;7.91;100.00;97815.00;4667268;30;19964;-69
2022/01/31 07:59:46;;;;;;;;;;;;;;;8.69;100.00;97828.31;4666355;30;20418;-68
2022/01/31 08:02:13;;;;;;;;;;;;;;;9.31;100.00;97829.50;4672009;30;19963;-69
2022/01/31 08:04:41;;;;;;;;;;;;;;;9.70;100.00;97837.78;4663974;30;19997;-68
2022/01/31 08:07:08;;;;;;;;;;;;;;;9.90;100.00;97853.66;4658102;30;19970;-69
2022/01/31 08:09:35;;;;;;;;;;;;;;;9.52;100.00;97867.72;4662660;30;19966;-69
2022/01/31 08:12:04;;;;;;;;;;;;;;;9.23;100.00;97878.13;4666262;30;19960;-68
2022/01/31 08:14:32;;;;;;;;;;;;;;;8.31;100.00;97877.22;4661774;30;19964;-68
2022/01/31 08:16:59;;;;;;;;;;;;;;;7.59;100.00;97896.72;4661167;30;20344;-68
2022/01/31 08:19:26;;;;;;;;;;;;;;;6.76;100.00;97892.88;4668689;30;19998;-68
2022/01/31 08:22:05;;;;;;;;;;;;;;;6.20;100.00;97893.06;4669927;30;19956;-69
2022/01/31 08:24:32;;;;;;;;;;;;;;;5.73;100.00;97877.00;4661304;30;19960;-69
2022/01/31 08:27:00;;;;;;;;;;;;;;;5.29;100.00;97869.25;4667033;30;19968;-67
2022/01/31 08:29:35;;;;;;;;;;;;;;;5.01;100.00;97866.03;4663787;30;20246;-68
2022/01/31 08:32:07;;;;;;;;;;;;;;;4.93;100.00;97847.72;4652708;30;19962;-68
2022/01/31 08:37:20;;;;;;;;;;;;;;;5.09;100.00;97833.69;4668244;30;19959;-68
2022/01/31 08:39:47;;;;;;;;;;;;;;;5.93;100.00;97822.97;4669091;30;19966;-69
2022/01/31 08:42:15;;;;;;;;;;;;;;;6.24;100.00;97816.16;4678475;30;19970;-68
2022/01/31 08:44:43;;;;;;;;;;;;;;;6.59;100.00;97799.84;4668962;30;19967;-68
2022/01/31 08:47:10;;;;;;;;;;;;;;;6.79;100.00;97792.88;4670827;30;20388;-68
2022/01/31 08:49:37;;;;;;;;;;;;;;;7.10;100.00;97797.06;4672582;30;19976;-68
2022/01/31 08:52:05;;;;;;;;;;;;;;;7.25;100.00;97793.19;4676080;30;19951;-68
2022/01/31 08:54:33;;;;;;;;;;;;;;;7.27;100.00;97788.84;4674844;30;19963;-68
2022/01/31 08:57:01;;;;;;;;;;;;;;;6.76;100.00;97782.53;4670537;30;19981;-68
2022/01/31 08:59:29;;;;;;;;;;;;;;;6.46;100.00;97768.00;4656685;30;20222;-69
2022/01/31 09:02:12;;;;;;;;;;;;;;;6.22;100.00;97761.03;4658098;30;19961;-69
2022/01/31 09:04:49;;;;;;;;;;;;;;;6.18;100.00;97746.34;4666546;30;19963;-68
2022/01/31 09:07:20;;;;;;;;;;;;;;;5.81;100.00;97720.56;4670925;30;20519;-69
2022/01/31 09:09:51;;;;;;;;;;;;;;;5.71;100.00;97699.03;4668397;30;20464;-69
2022/01/31 09:12:19;;;;;;;;;;;;;;;5.67;100.00;97692.69;4663651;30;19967;-68
2022/01/31 09:14:47;;;;;;;;;;;;;;;5.78;100.00;97669.41;4668941;30;19958;-68
2022/01/31 09:17:14;;;;;;;;;;;;;;;5.80;100.00;97655.13;4667455;30;19982;-68
2022/01/31 09:19:42;;;;;;;;;;;;;;;5.94;100.00;97655.31;4675568;30;19958;-68
2022/01/31 09:22:09;;;;;;;;;;;;;;;6.07;100.00;97653.03;4674107;30;19957;-68
2022/01/31 09:24:39;;;;;;;;;;;;;;;6.16;100.00;97653.53;4669772;30;19959;-68
2022/01/31 09:27:07;;;;;;;;;;;;;;;6.27;100.00;97655.19;4668090;30;19954;-68
2022/01/31 09:29:34;;;;;;;;;;;;;;;6.40;100.00;97667.59;4680225;30;20361;-68
2022/01/31 09:32:04;;;;;;;;;;;;;;;6.41;100.00;97685.03;4653206;30;20346;-68
2022/01/31 09:34:31;;;;;;;;;;;;;;;6.21;100.00;97689.25;4667849;30;19959;-68
2022/01/31 09:37:00;;;;;;;;;;;;;;;5.61;100.00;97674.78;4668012;30;19981;-68
2022/01/31 09:39:27;;;;;;;;;;;;;;;5.43;100.00;97673.78;4635880;30;19960;-68
2022/01/31 09:41:57;;;;;;;;;;;;;;;5.19;100.00;97652.91;4659704;30;19959;-68
2022/01/31 09:47:06;;;;;;;;;;;;;;;4.59;100.00;97661.25;4666403;30;19960;-68
2022/01/31 09:49:34;;;;;;;;;;;;;;;4.54;100.00;97669.09;4663691;30;20621;-68
2022/01/31 09:52:01;;;;;;;;;;;;;;;4.56;100.00;97667.53;4667385;30;19968;-68
2022/01/31 09:54:29;;;;;;;;;;;;;;;4.53;100.00;97657.22;4666422;30;20369;-68
2022/01/31 09:56:56;;;;;;;;;;;;;;;4.70;100.00;97642.00;4663939;30;20005;-68
2022/01/31 09:59:24;;;;;;;;;;;;;;;4.65;100.00;97647.88;4667072;30;19961;-68
2022/01/31 10:01:54;;;;;;;;;;;;;;;4.54;100.00;97650.50;4667672;30;20402;-68
2022/01/31 10:04:22;;;;;;;;;;;;;;;4.68;100.00;97660.16;4669065;30;19954;-68
2022/01/31 10:06:51;;;;;;;;;;;;;;;4.73;100.00;97657.06;4665995;30;19970;-68
2022/01/31 10:09:20;;;;;;;;;;;;;;;4.82;100.00;97652.06;4675066;30;19975;-68
2022/01/31 10:11:50;;;;;;;;;;;;;;;4.91;100.00;97650.63;4664735;30;19969;-68
2022/01/31 10:17:06;;;;;;;;;;;;;;;5.18;100.00;97641.03;4656526;30;19985;-68
2022/01/31 10:19:44;;;;;;;;;;;;;;;5.36;100.00;97634.88;4677420;30;19969;-68
2022/01/31 10:22:12;;;;;;;;;;;;;;;5.56;100.00;97639.88;4666433;30;19959;-68
2022/01/31 10:24:41;;;;;;;;;;;;;;;5.89;100.00;97631.47;4668286;30;19961;-68
2022/01/31 10:27:10;;;;;;;;;;;;;;;6.25;100.00;97629.00;4676474;30;19960;-68
2022/01/31 10:29:38;;;;;;;;;;;;;;;6.53;100.00;97632.75;4666055;30;19972;-68
2022/01/31 10:32:07;;;;;;;;;;;;;;;6.65;100.00;97637.22;4677616;30;19964;-68
2022/01/31 10:34:37;;;;;;;;;;;;;;;6.41;100.00;97641.41;4676444;30;19954;-68
2022/01/31 10:37:07;;;;;;;;;;;;;;;6.27;100.00;97654.38;4683444;30;19975;-68
2022/01/31 10:45:27;;;;;;;;;;;;;;;5.64;100.00;97616.56;4665255;30;19960;-68
2022/01/31 10:51:45;;;;;;;;;;;;;;;5.58;100.00;97589.56;4666766;30;19955;-68
2022/01/31 10:56:48;;;;;;;;;;;;;;;5.86;100.00;97570.44;4649653;30;20281;-68
2022/01/31 10:59:17;;;;;;;;;;;;;;;6.00;100.00;97564.97;4649685;30;19954;-68
2022/01/31 11:01:49;;;;;;;;;;;;;;;6.05;100.00;97563.81;4670070;30;19965;-68
2022/01/31 11:04:31;;;;;;;;;;;;;;;6.13;100.00;97546.84;4668737;30;19963;-68
2022/01/31 11:06:59;;;;;;;;;;;;;;;6.29;100.00;97538.19;4684533;30;19950;-68
2022/01/31 11:09:29;;;;;;;;;;;;;;;6.38;100.00;97530.31;4683340;30;19959;-68
2022/01/31 11:11:56;;;;;;;;;;;;;;;6.43;100.00;97518.84;4662619;30;19956;-68
2022/01/31 11:14:23;;;;;;;;;;;;;;;6.60;100.00;97502.22;4664851;30;19959;-68
2022/01/31 11:16:54;;;;;;;;;;;;;;;6.85;100.00;97499.53;4662704;30;20582;-68
2022/01/31 11:19:31;;;;;;;;;;;;;;;7.10;100.00;97489.28;4666840;30;20500;-67
2022/01/31 11:22:01;;;;;;;;;;;;;;;7.13;100.00;97473.81;4667329;30;19964;-67
2022/01/31 11:24:31;;;;;;;;;;;;;;;7.21;100.00;97456.72;4672718;30;19973;-67
2022/01/31 11:27:04;;;;;;;;;;;;;;;7.16;100.00;97439.66;4680539;30;19986;-67
2022/01/31 11:29:32;;;;;;;;;;;;;;;7.33;100.00;97436.09;4666832;30;19961;-67
2022/01/31 11:32:00;;;;;;;;;;;;;;;7.46;100.00;97426.13;4679946;30;19961;-67
2022/01/31 11:34:28;;;;;;;;;;;;;;;7.68;100.00;97387.94;4665930;30;20382;-67
2022/01/31 11:36:56;;;;;;;;;;;;;;;7.95;100.00;97383.50;4665707;30;19980;-67
2022/01/31 11:39:23;;;;;;;;;;;;;;;8.30;100.00;97375.03;4663485;30;19961;-67
2022/01/31 11:41:57;;;;;;;;;;;;;;;8.76;100.00;97363.63;4665549;30;20347;-67
2022/01/31 11:44:43;;;;;;;;;;;;;;;9.17;100.00;97352.53;4661691;30;19957;-67
2022/01/31 11:47:10;;;;;;;;;;;;;;;9.32;100.00;97370.75;4644643;30;19960;-67
2022/01/31 11:49:41;;;;;;;;;;;;;;;9.56;100.00;97364.13;4654309;30;19962;-67
2022/01/31 11:52:09;;;;;;;;;;;;;;;9.39;100.00;97361.53;4647919;30;19958;-67
2022/01/31 11:54:44;;;;;;;;;;;;;;;9.27;100.00;97376.75;4658871;30;19956;-67
2022/01/31 11:57:13;;;;;;;;;;;;;;;8.68;100.00;97369.66;4657789;30;19970;-67
2022/01/31 11:59:42;;;;;;;;;;;;;;;9.09;100.00;97384.50;4652270;30;19961;-67
2022/01/31 12:02:13;;;;;;;;;;;;;;;8.99;100.00;97371.44;4651340;30;19980;-67
2022/01/31 12:04:44;;;;;;;;;;;;;;;8.47;100.00;97354.66;4652551;30;19956;-67
2022/01/31 12:07:38;;;;;;;;;;;;;;;8.25;100.00;97352.34;4635099;30;20734;-67
2022/01/31 12:10:22;;;;;;;;;;;;;;;8.17;100.00;97357.16;4654356;30;19962;-67
2022/01/31 12:12:57;;;;;;;;;;;;;;;8.15;100.00;97351.22;4650778;30;19954;-67
2022/01/31 12:18:29;;;;;;;;;;;;;;;8.23;100.00;97336.06;4665133;30;19977;-67
2022/01/31 12:23:47;;;;;;;;;;;;;;;8.47;100.00;97343.50;4665826;30;19961;-67
2022/01/31 12:26:33;;;;;;;;;;;;;;;8.47;100.00;97343.50;4658745;30;19958;-67
2022/01/31 12:29:06;;;;;;;;;;;;;;;8.50;100.00;97331.56;4664574;30;19965;-67
2022/01/31 12:31:37;;;;;;;;;;;;;;;8.45;100.00;97315.28;4654477;30;21644;-67
2022/01/31 12:34:16;;;;;;;;;;;;;;;8.51;100.00;97327.56;4646060;30;19982;-67
2022/01/31 12:36:44;;;;;;;;;;;;;;;8.33;100.00;97315.75;4657496;30;19983;-67
2022/01/31 12:39:38;;;;;;;;;;;;;;;8.39;100.00;97294.59;4647906;30;19966;-68
2022/01/31 12:45:53;;;;;;;;;;;;;;;8.16;100.00;97277.63;4645279;30;21058;-67
2022/01/31 12:48:25;;;;;;;;;;;;;;;8.15;100.00;97264.09;4638213;30;19966;-67
2022/01/31 12:50:52;;;;;;;;;;;;;;;7.89;100.00;97265.44;4651491;30;19959;-68
2022/01/31 12:53:23;;;;;;;;;;;;;;;7.84;100.00;97255.53;4647678;30;19958;-68
2022/01/31 12:56:02;;;;;;;;;;;;;;;7.88;100.00;97249.91;4648567;30;19955;-68
2022/01/31 12:58:30;;;;;;;;;;;;;;;7.90;100.00;97233.59;4658580;30;19975;-68
2022/01/31 13:00:57;;;;;;;;;;;;;;;7.95;100.00;97222.03;4653479;30;19966;-68
2022/01/31 13:03:33;;;;;;;;;;;;;;;7.65;100.00;97214.28;4645497;30;19955;-68
2022/01/31 13:06:02;;;;;;;;;;;;;;;7.88;100.00;97210.97;4647101;30;20006;-68
2022/01/31 13:08:30;;;;;;;;;;;;;;;7.86;100.00;97199.44;4653443;30;19952;-68
2022/01/31 13:10:57;;;;;;;;;;;;;;;7.79;100.00;97182.78;4657333;30;19974;-68
2022/01/31 13:13:37;;;;;;;;;;;;;;;7.80;100.00;97192.75;4657957;30;19959;-68
2022/01/31 13:16:09;;;;;;;;;;;;;;;7.91;100.00;97171.97;4650658;30;19983;-67
2022/01/31 13:18:37;;;;;;;;;;;;;;;7.88;100.00;97172.00;4647601;30;19985;-68
2022/01/31 13:21:13;;;;;;;;;;;;;;;7.78;100.00;97164.50;4643585;30;19962;-68
2022/01/31 13:23:42;;;;;;;;;;;;;;;7.74;100.00;97149.81;4647425;30;19967;-68
2022/01/31 13:26:10;;;;;;;;;;;;;;;7.62;100.00;97142.75;4649622;30;19961;-68
2022/01/31 13:28:38;;;;;;;;;;;;;;;7.56;100.00;97151.91;4645392;30;19960;-68
2022/01/31 13:31:06;;;;;;;;;;;;;;;7.29;100.00;97157.22;4654704;30;19955;-67
2022/01/31 13:33:52;;;;;;;;;;;;;;;7.11;100.00;97164.84;4658478;30;19983;-68
2022/01/31 13:36:20;;;;;;;;;;;;;;;7.23;100.00;97172.75;4658847;30;19958;-68
2022/01/31 13:38:47;;;;;;;;;;;;;;;7.13;100.00;97162.44;4660520;30;19975;-67
2022/01/31 13:41:18;;;;;;;;;;;;;;;7.25;100.00;97153.66;4662696;30;19966;-67
2022/01/31 13:43:47;;;;;;;;;;;;;;;7.24;100.00;97146.50;4666115;30;19963;-68
2022/01/31 13:48:58;;;;;;;;;;;;;;;7.16;100.00;97161.66;4661576;30;19961;-68
2022/01/31 13:51:38;;;;;;;;;;;;;;;7.22;100.00;97152.47;4666468;30;20365;-68
2022/01/31 13:54:08;;;;;;;;;;;;;;;7.14;100.00;97147.38;4659714;30;19956;-68
2022/01/31 13:56:37;;;;;;;;;;;;;;;7.17;100.00;97163.22;4670065;30;20468;-68
2022/01/31 13:59:07;;;;;;;;;;;;;;;7.26;100.00;97146.91;4660424;30;19973;-68
2022/01/31 14:01:34;;;;;;;;;;;;;;;7.32;100.00;97144.50;4660861;30;19967;-68
2022/01/31 14:04:02;;;;;;;;;;;;;;;7.08;100.00;97140.63;4659498;30;19961;-68
2022/01/31 14:06:31;;;;;;;;;;;;;;;7.20;100.00;97148.53;4662082;30;19958;-68
2022/01/31 14:09:00;;;;;;;;;;;;;;;7.23;100.00;97148.53;4671778;30;19991;-68
2022/01/31 14:11:28;;;;;;;;;;;;;;;7.14;100.00;97141.81;4665429;30;20392;-68
2022/01/31 14:13:57;;;;;;;;;;;;;;;6.95;100.00;97134.72;4668030;30;19965;-68
2022/01/31 14:16:43;;;;;;;;;;;;;;;6.76;100.00;97151.03;4662190;30;19957;-68
2022/01/31 14:19:12;;;;;;;;;;;;;;;6.99;100.00;97137.50;4666323;30;19975;-68
2022/01/31 14:21:46;;;;;;;;;;;;;;;6.90;100.00;97145.44;4667988;30;19964;-68
2022/01/31 14:24:14;;;;;;;;;;;;;;;6.91;100.00;97153.41;4664705;30;19961;-68
2022/01/31 14:27:05;;;;;;;;;;;;;;;6.90;100.00;97156.56;4670246;30;19959;-68
2022/01/31 14:29:36;;;;;;;;;;;;;;;7.05;100.00;97153.34;4667674;30;19954;-68
2022/01/31 14:32:08;;;;;;;;;;;;;;;6.84;100.00;97164.53;4663374;30;19958;-68
2022/01/31 14:34:39;;;;;;;;;;;;;;;6.69;100.00;97159.41;4660689;30;19963;-68
2022/01/31 14:37:08;;;;;;;;;;;;;;;6.68;100.00;97171.69;4669000;30;20267;-68
2022/01/31 14:39:48;;;;;;;;;;;;;;;6.61;100.00;97173.31;4666124;30;19976;-67
2022/01/31 14:47:47;;;;;;;;;;;;;;;6.46;100.00;97191.16;4672898;30;19969;-67
2022/01/31 14:50:17;;;;;;;;;;;;;;;6.40;100.00;97181.66;4665865;30;19964;-67
2022/01/31 14:52:45;;;;;;;;;;;;;;;6.40;100.00;97178.09;4670838;30;20278;-67
2022/01/31 14:55:20;;;;;;;;;;;;;;;6.41;100.00;97168.56;4666128;30;19963;-67
2022/01/31 14:57:52;;;;;;;;;;;;;;;6.44;100.00;97182.44;4664120;30;19980;-69
2022/01/31 15:00:21;;;;;;;;;;;;;;;6.49;100.00;97184.81;4666569;30;19965;-68
2022/01/31 15:02:49;;;;;;;;;;;;;;;6.40;100.00;97191.97;4666830;30;19966;-69
2022/01/31 15:05:19;;;;;;;;;;;;;;;6.38;100.00;97180.47;4666795;30;19957;-67
2022/01/31 15:07:47;;;;;;;;;;;;;;;6.39;100.00;97179.28;4665763;30;19967;-67
2022/01/31 15:10:15;;;;;;;;;;;;;;;6.42;100.00;97172.94;4665490;30;19965;-68
2022/01/31 15:12:44;;;;;;;;;;;;;;;6.45;100.00;97170.16;4669496;30;19959;-68
2022/01/31 15:15:14;;;;;;;;;;;;;;;6.28;100.00;97178.50;4673309;30;19977;-66
2022/01/31 15:17:46;;;;;;;;;;;;;;;6.26;100.00;97181.66;4667262;30;19953;-67
2022/01/31 15:20:16;;;;;;;;;;;;;;;6.19;100.00;97192.75;4668316;30;19955;-67
2022/01/31 15:22:44;;;;;;;;;;;;;;;6.08;100.00;97205.03;4668485;30;19961;-67
2022/01/31 15:25:11;;;;;;;;;;;;;;;6.08;100.00;97202.25;4670481;30;20555;-67
2022/01/31 15:27:39;;;;;;;;;;;;;;;6.05;100.00;97206.63;4669224;30;19959;-67
2022/01/31 15:30:07;;;;;;;;;;;;;;;5.97;100.00;97210.56;4658060;30;19968;-67
2022/01/31 15:32:34;;;;;;;;;;;;;;;5.96;100.00;97214.53;4673882;30;20447;-67
2022/01/31 15:35:02;;;;;;;;;;;;;;;5.96;100.00;97220.09;4660151;30;19967;-67
2022/01/31 15:37:31;;;;;;;;;;;;;;;5.95;100.00;97218.50;4654553;30;19964;-67
2022/01/31 15:40:16;;;;;;;;;;;;;;;5.96;100.00;97209.00;4649270;30;19956;-67
2022/01/31 15:42:44;;;;;;;;;;;;;;;6.04;100.00;97188.38;4655937;30;19967;-67
2022/01/31 15:45:11;;;;;;;;;;;;;;;6.08;100.00;97191.16;4650449;30;19967;-67
2022/01/31 15:47:38;;;;;;;;;;;;;;;5.95;100.00;97196.31;4656846;30;19965;-67
2022/01/31 15:50:06;;;;;;;;;;;;;;;5.97;100.00;97191.94;4653726;30;19958;-67
2022/01/31 15:52:34;;;;;;;;;;;;;;;5.97;100.00;97201.47;4653369;30;19962;-67
2022/01/31 15:55:02;;;;;;;;;;;;;;;5.85;100.00;97214.50;4646670;30;20024;-67
2022/01/31 15:57:33;;;;;;;;;;;;;;;5.79;100.00;97220.81;4650548;30;19963;-67
2022/01/31 16:00:01;;;;;;;;;;;;;;;5.74;100.00;97229.53;4648639;30;19997;-67
2022/01/31 16:02:29;;;;;;;;;;;;;;;5.71;100.00;97252.50;4648896;30;19955;-67
2022/01/31 16:04:57;;;;;;;;;;;;;;;5.61;100.00;97259.59;4648228;30;19960;-67
2022/01/31 16:07:24;;;;;;;;;;;;;;;5.69;100.00;97252.88;4648545;30;19955;-67
2022/01/31 16:09:51;;;;;;;;;;;;;;;5.61;100.00;97253.25;4648084;30;20400;-67
2022/01/31 16:12:21;;;;;;;;;;;;;;;5.62;100.00;97240.97;4648559;30;19993;-67
2022/01/31 16:14:54;;;;;;;;;;;;;;;5.49;100.00;97231.41;4648769;30;19966;-67
2022/01/31 16:17:21;;;;;;;;;;;;;;;5.42;100.00;97232.19;4648319;30;19969;-67
2022/01/31 16:19:48;;;;;;;;;;;;;;;5.45;100.00;97261.91;4647827;30;20044;-67
2022/01/31 16:22:16;;;;;;;;;;;;;;;5.45;100.00;97281.31;4651823;30;20246;-67
2022/01/31 16:24:43;;;;;;;;;;;;;;;5.47;100.00;97276.16;4630467;30;19963;-67
2022/01/31 16:27:11;;;;;;;;;;;;;;;5.42;100.00;97284.84;4632572;30;20284;-68
2022/01/31 16:29:43;;;;;;;;;;;;;;;5.30;100.00;97287.97;4652207;30;19964;-67
2022/01/31 16:32:11;;;;;;;;;;;;;;;5.27;100.00;97277.66;4650696;30;20390;-67
2022/01/31 16:34:38;;;;;;;;;;;;;;;5.22;100.00;97281.59;4648786;30;19963;-67
2022/01/31 16:37:05;;;;;;;;;;;;;;;5.23;100.00;97288.69;4646982;30;19963;-67
2022/01/31 16:39:33;;;;;;;;;;;;;;;5.21;100.00;97295.81;4649783;30;19983;-67
2022/01/31 16:42:00;;;;;;;;;;;;;;;5.21;100.00;97301.34;4649472;30;19964;-67
2022/01/31 16:44:27;;;;;;;;;;;;;;;5.11;100.00;97302.88;4634057;30;20347;-67
2022/01/31 16:46:55;;;;;;;;;;;;;;;5.06;100.00;97306.00;4646599;30;19954;-67
2022/01/31 16:49:22;;;;;;;;;;;;;;;5.03;100.00;97312.34;4647751;30;19965;-67
2022/01/31 16:51:49;;;;;;;;;;;;;;;5.04;100.00;97326.97;4652664;30;19959;-67
2022/01/31 16:54:17;;;;;;;;;;;;;;;5.06;100.00;97322.63;4653088;30;19962;-67
2022/01/31 16:56:46;;;;;;;;;;;;;;;5.08;100.00;97331.38;4650738;30;19964;-67
2022/01/31 16:59:14;;;;;;;;;;;;;;;5.11;100.00;97313.19;4649456;30;19973;-67
2022/01/31 17:01:41;;;;;;;;;;;;;;;5.08;100.00;97305.66;4648150;30;19963;-67
2022/01/31 17:04:09;;;;;;;;;;;;;;;5.11;100.00;97315.97;4652095;30;19966;-67
2022/01/31 17:06:36;;;;;;;;;;;;;;;5.15;100.00;97316.78;4645119;30;19967;-67
2022/01/31 17:09:03;;;;;;;;;;;;;;;5.08;100.00;97331.38;4629602;30;19965;-67
2022/01/31 17:11:31;;;;;;;;;;;;;;;5.11;100.00;97352.75;4646875;30;19966;-67
2022/01/31 17:13:58;;;;;;;;;;;;;;;5.03;100.00;97369.72;4646889;30;19983;-67
2022/01/31 17:16:26;;;;;;;;;;;;;;;4.96;100.00;97364.13;4648775;30;19970;-67
2022/01/31 17:18:53;;;;;;;;;;;;;;;4.89;100.00;97377.94;4646163;30;19974;-67
2022/01/31 17:21:20;;;;;;;;;;;;;;;4.91;100.00;97368.06;4651137;30;19957;-67
2022/01/31 17:23:48;;;;;;;;;;;;;;;4.90;100.00;97379.50;4646745;30;19969;-67
2022/01/31 17:26:15;;;;;;;;;;;;;;;4.90;100.00;97379.50;4647223;30;19983;-67
2022/01/31 17:28:42;;;;;;;;;;;;;;;4.94;100.00;97394.19;4650750;30;19966;-67
2022/01/31 17:31:09;;;;;;;;;;;;;;;4.89;100.00;97392.56;4630700;30;19957;-67
2022/01/31 17:33:42;;;;;;;;;;;;;;;4.86;100.00;97398.09;4654011;30;19975;-67
2022/01/31 17:36:09;;;;;;;;;;;;;;;4.82;100.00;97411.88;4645503;30;19970;-67
2022/01/31 17:38:37;;;;;;;;;;;;;;;4.79;100.00;97401.59;4652054;30;19967;-67
2022/01/31 17:41:06;;;;;;;;;;;;;;;4.80;100.00;97399.59;4651749;30;19962;-67
2022/01/31 17:43:33;;;;;;;;;;;;;;;4.85;100.00;97413.91;4657055;30;19960;-67
2022/01/31 17:46:01;;;;;;;;;;;;;;;4.88;100.00;97418.69;4657187;30;19965;-67
2022/01/31 17:48:28;;;;;;;;;;;;;;;4.86;100.00;97434.09;4650928;30;19959;-67
2022/01/31 17:50:55;;;;;;;;;;;;;;;4.78;100.00;97432.41;4650553;30;19963;-67
2022/01/31 17:53:24;;;;;;;;;;;;;;;4.63;100.00;97423.97;4650874;30;19957;-67
2022/01/31 17:55:51;;;;;;;;;;;;;;;4.61;100.00;97429.09;4650604;30;19971;-67
2022/01/31 17:58:18;;;;;;;;;;;;;;;4.57;100.00;97442.09;4650712;30;19953;-67
2022/01/31 18:00:46;;;;;;;;;;;;;;;4.57;100.00;97439.31;4650328;30;19982;-67
2022/01/31 18:03:13;;;;;;;;;;;;;;;4.52;100.00;97447.97;4650886;30;19969;-67
2022/01/31 18:05:42;;;;;;;;;;;;;;;4.54;100.00;97439.31;4635798;30;19958;-67
2022/01/31 18:08:09;;;;;;;;;;;;;;;4.43;100.00;97444.72;4650195;30;19960;-67
2022/01/31 18:10:38;;;;;;;;;;;;;;;4.35;100.00;97443.03;4651132;30;19955;-67
2022/01/31 18:13:07;;;;;;;;;;;;;;;4.41;100.00;97451.81;4651446;30;19956;-67
2022/01/31 18:15:35;;;;;;;;;;;;;;;4.43;100.00;97454.97;4655280;30;19981;-67
2022/01/31 18:18:03;;;;;;;;;;;;;;;4.53;100.00;97465.38;4655375;30;19966;-67
2022/01/31 18:20:30;;;;;;;;;;;;;;;4.61;100.00;97481.72;4653373;30;19977;-67
2022/01/31 18:22:59;;;;;;;;;;;;;;;4.67;100.00;97471.06;4653208;30;19960;-67
2022/01/31 18:25:27;;;;;;;;;;;;;;;4.80;100.00;97466.88;4649621;30;19956;-67
2022/01/31 18:27:56;;;;;;;;;;;;;;;4.92;100.00;97474.91;4662002;30;19963;-67
2022/01/31 18:30:24;;;;;;;;;;;;;;;4.95;100.00;97459.50;4667888;30;20382;-67
2022/01/31 18:32:51;;;;;;;;;;;;;;;4.91;100.00;97476.09;4657661;30;19983;-67
2022/01/31 18:35:21;;;;;;;;;;;;;;;4.93;100.00;97475.69;4668096;30;19990;-67
2022/01/31 18:37:48;;;;;;;;;;;;;;;4.95;100.00;97479.69;4667442;30;19963;-67
2022/01/31 18:40:17;;;;;;;;;;;;;;;4.96;100.00;97478.53;4669723;30;19983;-67
2022/01/31 18:42:45;;;;;;;;;;;;;;;4.98;100.00;97487.25;4673028;30;20038;-67
2022/01/31 18:45:18;;;;;;;;;;;;;;;5.09;100.00;97477.03;4668101;30;19967;-67
2022/01/31 18:47:46;;;;;;;;;;;;;;;5.05;100.00;97484.53;4653904;30;19958;-67
2022/01/31 18:50:23;;;;;;;;;;;;;;;5.03;100.00;97484.13;4676176;30;20356;-67
2022/01/31 18:52:52;;;;;;;;;;;;;;;5.04;100.00;97493.22;4676221;30;19959;-67
2022/01/31 18:55:20;;;;;;;;;;;;;;;5.05;100.00;97497.59;4681627;30;19967;-67
2022/01/31 18:57:47;;;;;;;;;;;;;;;5.07;100.00;97496.03;4676623;30;20233;-69
2022/01/31 19:00:16;;;;;;;;;;;;;;;5.09;100.00;97499.22;4667446;30;19973;-68
2022/01/31 19:02:43;;;;;;;;;;;;;;;5.15;100.00;97499.66;4669408;30;19955;-67
2022/01/31 19:05:10;;;;;;;;;;;;;;;5.14;100.00;97507.19;4667440;30;20039;-67
2022/01/31 19:07:39;;;;;;;;;;;;;;;5.16;100.00;97518.66;4669196;30;19958;-67
2022/01/31 19:10:13;;;;;;;;;;;;;;;5.29;100.00;97533.06;4670544;30;20388;-67